createdAt,value
2018-08-25T00:00:45.591Z,1.10
2018-08-25T00:01:45.593Z,0.70
2018-08-25T00:02:45.559Z,1.10
2018-08-25T00:03:45.547Z,0.80
2018-08-25T00:04:45.555Z,1.10
2018-08-25T00:05:45.526Z,0.80
2018-08-25T00:06:45.571Z,1.10
2018-08-25T00:07:45.504Z,0.90
2018-08-25T00:08:45.493Z,1.00
2018-08-25T00:09:45.481Z,1.00
2018-08-25T00:10:45.508Z,1.00
2018-08-25T00:11:45.456Z,0.80
2018-08-25T00:12:45.449Z,1.10
2018-08-25T00:13:45.435Z,0.80
2018-08-25T00:14:45.426Z,1.00
2018-08-25T00:15:45.450Z,1.00
2018-08-25T00:16:45.423Z,1.30
2018-08-25T00:17:45.392Z,1.00
2018-08-25T00:18:45.387Z,1.10
2018-08-25T00:19:45.370Z,1.20
2018-08-25T00:20:45.356Z,1.00
2018-08-25T00:21:45.345Z,1.30
2018-08-25T00:22:45.370Z,0.90
2018-08-25T00:23:45.330Z,1.00
2018-08-25T00:24:45.320Z,1.40
2018-08-25T00:25:45.344Z,1.10
2018-08-25T00:26:45.291Z,1.00
2018-08-25T00:27:45.281Z,1.00
2018-08-25T00:28:45.303Z,1.30
2018-08-25T00:29:45.259Z,1.10
2018-08-25T00:30:45.247Z,1.20
2018-08-25T00:31:45.255Z,0.80
2018-08-25T00:32:45.225Z,1.00
2018-08-25T00:33:45.212Z,1.10
2018-08-25T00:34:45.240Z,1.20
2018-08-25T00:35:45.192Z,1.20
2018-08-25T00:36:45.178Z,1.00
2018-08-25T00:37:45.182Z,1.00
2018-08-25T00:38:45.158Z,1.00
2018-08-25T00:39:45.146Z,1.20
2018-08-25T00:40:45.137Z,1.10
2018-08-25T00:41:45.193Z,1.00
2018-08-25T00:42:45.129Z,1.20
2018-08-25T00:43:45.102Z,1.30
2018-08-25T00:44:45.091Z,1.00
2018-08-25T00:45:45.080Z,1.10
2018-08-25T00:46:45.068Z,1.10
2018-08-25T00:47:45.135Z,0.90
2018-08-25T00:48:45.077Z,0.90
2018-08-25T00:49:45.038Z,1.50
2018-08-25T00:50:45.024Z,1.00
2018-08-25T00:51:45.026Z,1.40
2018-08-25T00:52:45.023Z,1.20
2018-08-25T00:53:44.992Z,1.50
2018-08-25T00:54:44.979Z,1.30
2018-08-25T00:55:44.971Z,1.30
2018-08-25T00:56:44.958Z,1.40
2018-08-25T00:57:44.947Z,1.10
2018-08-25T00:58:44.949Z,1.20
2018-08-25T00:59:44.932Z,1.10
2018-08-25T01:00:44.938Z,1.10
2018-08-25T01:01:44.904Z,1.20
2018-08-25T01:02:44.910Z,1.40
2018-08-25T01:03:44.882Z,1.40
2018-08-25T01:04:44.911Z,1.50
2018-08-25T01:05:44.860Z,1.20
2018-08-25T01:06:44.860Z,1.30
2018-08-25T01:07:44.836Z,1.30
2018-08-25T01:08:44.878Z,1.40
2018-08-25T01:09:44.815Z,1.10
2018-08-25T01:10:44.815Z,1.20
2018-08-25T01:11:44.790Z,1.00
2018-08-25T01:12:44.779Z,1.40
2018-08-25T01:13:44.770Z,1.30
2018-08-25T01:14:44.760Z,1.40
2018-08-25T01:15:44.895Z,1.40
2018-08-25T01:16:44.739Z,1.20
2018-08-25T01:17:44.729Z,1.30
2018-08-25T01:18:44.730Z,1.40
2018-08-25T01:19:44.715Z,1.30
2018-08-25T01:20:44.707Z,1.60
2018-08-25T01:21:44.679Z,1.30
2018-08-25T01:22:44.672Z,1.40
2018-08-25T01:23:44.668Z,1.30
2018-08-25T01:24:44.647Z,1.70
2018-08-25T01:25:44.695Z,1.30
2018-08-25T01:26:44.627Z,1.40
2018-08-25T01:27:44.614Z,1.30
2018-08-25T01:28:44.607Z,1.40
2018-08-25T01:29:44.645Z,1.70
2018-08-25T01:30:44.597Z,1.40
2018-08-25T01:31:44.571Z,1.30
2018-08-25T01:32:44.604Z,1.50
2018-08-25T01:33:44.567Z,1.30
2018-08-25T01:34:44.537Z,1.40
2018-08-25T01:35:44.527Z,1.60
2018-08-25T01:36:44.518Z,1.30
2018-08-25T01:37:44.522Z,1.30
2018-08-25T01:38:44.523Z,1.30
2018-08-25T01:39:44.497Z,1.30
2018-08-25T01:40:44.472Z,1.50
2018-08-25T01:41:44.463Z,1.30
2018-08-25T01:42:44.468Z,1.10
2018-08-25T01:43:44.452Z,1.30
2018-08-25T01:44:44.428Z,1.30
2018-08-25T01:45:44.418Z,1.40
2018-08-25T01:46:44.406Z,1.40
2018-08-25T01:47:44.406Z,1.20
2018-08-25T01:48:44.396Z,1.40
2018-08-25T01:49:44.370Z,1.50
2018-08-25T01:50:44.363Z,1.70
2018-08-25T01:51:44.348Z,1.40
2018-08-25T01:52:44.392Z,1.20
2018-08-25T01:53:44.340Z,1.40
2018-08-25T01:54:44.343Z,1.20
2018-08-25T01:55:44.305Z,1.70
2018-08-25T01:56:44.296Z,1.40
2018-08-25T01:57:44.308Z,1.40
2018-08-25T01:58:44.273Z,1.40
2018-08-25T01:59:44.263Z,1.20
2018-08-25T02:00:44.267Z,1.60
2018-08-25T02:01:44.238Z,1.40
2018-08-25T02:02:44.254Z,1.20
2018-08-25T02:03:44.223Z,1.20
2018-08-25T02:04:44.208Z,1.90
2018-08-25T02:05:44.213Z,1.30
2018-08-25T02:06:44.183Z,1.30
2018-08-25T02:07:44.177Z,1.30
2018-08-25T02:08:44.163Z,1.60
2018-08-25T02:09:44.185Z,1.40
2018-08-25T02:10:44.141Z,1.20
2018-08-25T02:11:44.132Z,1.60
2018-08-25T02:12:44.120Z,1.30
2018-08-25T02:13:44.109Z,1.40
2018-08-25T02:14:44.112Z,1.30
2018-08-25T02:15:44.099Z,1.20
2018-08-25T02:16:44.076Z,1.50
2018-08-25T02:17:44.073Z,1.80
2018-08-25T02:18:44.057Z,1.30
2018-08-25T02:19:44.058Z,1.40
2018-08-25T02:20:44.048Z,1.30
2018-08-25T02:21:44.027Z,1.50
2018-08-25T02:22:44.007Z,1.40
2018-08-25T02:23:44.004Z,1.20
2018-08-25T02:24:44.048Z,1.20
2018-08-25T02:25:43.974Z,1.50
2018-08-25T02:26:43.963Z,1.20
2018-08-25T02:27:43.953Z,1.20
2018-08-25T02:28:43.952Z,1.20
2018-08-25T02:29:43.929Z,1.10
2018-08-25T02:30:43.919Z,1.20
2018-08-25T02:31:43.929Z,1.20
2018-08-25T02:32:43.897Z,1.10
2018-08-25T02:33:43.924Z,1.50
2018-08-25T02:34:43.894Z,1.20
2018-08-25T02:35:43.871Z,1.30
2018-08-25T02:36:43.852Z,1.20
2018-08-25T02:37:43.842Z,1.50
2018-08-25T02:38:43.880Z,1.00
2018-08-25T02:39:43.836Z,1.20
2018-08-25T02:40:43.817Z,1.20
2018-08-25T02:41:43.801Z,1.00
2018-08-25T02:42:43.791Z,1.00
2018-08-25T02:43:43.794Z,1.30
2018-08-25T02:44:43.767Z,1.20
2018-08-25T02:45:43.783Z,1.20
2018-08-25T02:46:43.750Z,1.20
2018-08-25T02:47:43.736Z,1.40
2018-08-25T02:48:43.763Z,1.00
2018-08-25T02:49:43.712Z,1.00
2018-08-25T02:50:43.698Z,1.00
2018-08-25T02:51:43.712Z,1.00
2018-08-25T02:52:43.724Z,1.20
2018-08-25T02:53:43.665Z,1.10
2018-08-25T02:54:43.672Z,1.00
2018-08-25T02:55:43.644Z,1.30
2018-08-25T02:56:43.632Z,1.10
2018-08-25T02:57:43.621Z,1.10
2018-08-25T02:58:43.610Z,1.00
2018-08-25T02:59:43.616Z,1.10
2018-08-25T03:00:43.604Z,1.00
2018-08-25T03:01:43.579Z,1.30
2018-08-25T03:02:43.584Z,1.00
2018-08-25T03:03:43.556Z,1.30
2018-08-25T03:04:43.572Z,1.20
2018-08-25T03:05:43.535Z,1.10
2018-08-25T03:06:43.521Z,1.00
2018-08-25T03:07:43.511Z,1.20
2018-08-25T03:08:43.508Z,1.20
2018-08-25T03:09:43.498Z,1.30
2018-08-25T03:10:43.496Z,1.00
2018-08-25T03:11:43.468Z,1.00
2018-08-25T03:12:43.482Z,1.20
2018-08-25T03:13:43.501Z,1.00
2018-08-25T03:14:43.435Z,1.00
2018-08-25T03:15:43.443Z,1.00
2018-08-25T03:16:43.414Z,0.80
2018-08-25T03:17:43.416Z,1.00
2018-08-25T03:18:43.392Z,1.00
2018-08-25T03:19:43.380Z,0.90
2018-08-25T03:20:43.370Z,0.90
2018-08-25T03:21:43.370Z,0.80
2018-08-25T03:22:43.360Z,1.00
2018-08-25T03:23:43.334Z,0.90
2018-08-25T03:24:43.334Z,0.90
2018-08-25T03:25:43.314Z,1.10
2018-08-25T03:26:43.317Z,1.20
2018-08-25T03:27:43.291Z,1.00
2018-08-25T03:28:43.299Z,1.10
2018-08-25T03:29:43.269Z,1.00
2018-08-25T03:30:43.310Z,1.30
2018-08-25T03:31:43.276Z,1.00
2018-08-25T03:32:43.235Z,1.20
2018-08-25T03:33:43.243Z,1.10
2018-08-25T03:34:43.214Z,0.90
2018-08-25T03:35:43.202Z,1.20
2018-08-25T03:36:43.209Z,1.10
2018-08-25T03:37:43.182Z,0.80
2018-08-25T03:38:43.167Z,1.20
2018-08-25T03:39:43.160Z,0.90
2018-08-25T03:40:43.156Z,1.60
2018-08-25T03:41:43.151Z,1.10
2018-08-25T03:42:43.125Z,1.20
2018-08-25T03:43:43.112Z,1.00
2018-08-25T03:44:43.123Z,0.80
2018-08-25T03:45:43.106Z,1.10
2018-08-25T03:46:43.081Z,1.20
2018-08-25T03:47:43.081Z,1.00
2018-08-25T03:48:43.058Z,1.00
2018-08-25T03:49:43.094Z,1.30
2018-08-25T03:50:43.035Z,1.00
2018-08-25T03:51:43.025Z,1.20
2018-08-25T03:52:43.015Z,1.10
2018-08-25T03:53:43.002Z,1.20
2018-08-25T03:54:42.993Z,1.20
2018-08-25T03:55:42.996Z,1.10
2018-08-25T03:56:42.968Z,1.10
2018-08-25T03:57:42.959Z,1.20
2018-08-25T03:58:42.951Z,1.00
2018-08-25T03:59:42.947Z,1.00
2018-08-25T04:00:42.940Z,1.20
2018-08-25T04:01:42.989Z,0.90
2018-08-25T04:02:42.905Z,1.30
2018-08-25T04:03:42.892Z,1.10
2018-08-25T04:04:42.909Z,1.40
2018-08-25T04:05:42.906Z,1.10
2018-08-25T04:06:42.863Z,1.20
2018-08-25T04:07:42.848Z,1.00
2018-08-25T04:08:42.837Z,1.20
2018-08-25T04:09:42.825Z,0.90
2018-08-25T04:10:42.816Z,1.00
2018-08-25T04:11:42.815Z,1.30
2018-08-25T04:12:42.791Z,1.00
2018-08-25T04:13:42.779Z,1.00
2018-08-25T04:14:42.823Z,1.10
2018-08-25T04:15:42.758Z,1.20
2018-08-25T04:16:42.767Z,1.10
2018-08-25T04:17:42.735Z,1.50
2018-08-25T04:18:42.727Z,1.10
2018-08-25T04:19:42.716Z,1.20
2018-08-25T04:20:42.704Z,0.80
2018-08-25T04:21:42.692Z,1.10
2018-08-25T04:22:42.698Z,0.90
2018-08-25T04:23:42.669Z,0.90
2018-08-25T04:24:42.662Z,1.00
2018-08-25T04:25:42.663Z,0.90
2018-08-25T04:26:42.636Z,1.10
2018-08-25T04:27:42.637Z,1.10
2018-08-25T04:28:42.623Z,1.30
2018-08-25T04:29:42.625Z,1.10
2018-08-25T04:30:42.593Z,1.30
2018-08-25T04:31:42.599Z,0.90
2018-08-25T04:32:42.591Z,1.10
2018-08-25T04:33:42.565Z,1.10
2018-08-25T04:34:42.549Z,0.90
2018-08-25T04:35:42.539Z,1.10
2018-08-25T04:36:42.533Z,1.00
2018-08-25T04:37:42.530Z,0.90
2018-08-25T04:38:42.505Z,1.20
2018-08-25T04:39:42.490Z,0.90
2018-08-25T04:40:42.479Z,0.90
2018-08-25T04:41:42.473Z,0.90
2018-08-25T04:42:42.480Z,0.90
2018-08-25T04:43:42.446Z,1.20
2018-08-25T04:44:42.434Z,1.30
2018-08-25T04:45:42.432Z,0.90
2018-08-25T04:46:42.412Z,0.90
2018-08-25T04:47:42.401Z,1.20
2018-08-25T04:48:42.404Z,1.00
2018-08-25T04:49:42.383Z,0.90
2018-08-25T04:50:42.368Z,1.00
2018-08-25T04:51:42.361Z,0.90
2018-08-25T04:52:42.368Z,1.00
2018-08-25T04:53:42.336Z,0.90
2018-08-25T04:54:42.327Z,0.90
2018-08-25T04:55:42.312Z,0.70
2018-08-25T04:56:42.313Z,1.20
2018-08-25T04:57:42.293Z,0.90
2018-08-25T04:58:42.298Z,0.80
2018-08-25T04:59:42.318Z,1.00
2018-08-25T05:00:42.259Z,0.80
2018-08-25T05:01:42.284Z,1.20
2018-08-25T05:02:42.235Z,0.90
2018-08-25T05:03:42.226Z,1.10
2018-08-25T05:04:42.238Z,0.90
2018-08-25T05:05:42.219Z,0.80
2018-08-25T05:06:42.196Z,1.20
2018-08-25T05:07:42.240Z,0.70
2018-08-25T05:08:42.168Z,1.00
2018-08-25T05:09:42.157Z,1.00
2018-08-25T05:10:42.165Z,1.20
2018-08-25T05:11:42.134Z,0.90
2018-08-25T05:12:42.131Z,1.30
2018-08-25T05:13:42.112Z,1.40
2018-08-25T05:14:42.101Z,1.10
2018-08-25T05:15:42.105Z,1.50
2018-08-25T05:16:42.079Z,1.10
2018-08-25T05:17:42.068Z,1.50
2018-08-25T05:18:42.059Z,1.60
2018-08-25T05:19:42.064Z,1.40
2018-08-25T05:20:42.040Z,1.50
2018-08-25T05:21:42.024Z,1.50
2018-08-25T05:22:42.015Z,1.60
2018-08-25T05:23:42.016Z,1.80
2018-08-25T05:24:42.017Z,2.20
2018-08-25T05:25:41.982Z,2.10
2018-08-25T05:26:41.969Z,2.70
2018-08-25T05:27:41.958Z,2.40
2018-08-25T05:28:41.948Z,2.70
2018-08-25T05:29:41.939Z,2.40
2018-08-25T05:30:41.943Z,3.10
2018-08-25T05:31:41.919Z,2.90
2018-08-25T05:32:41.919Z,3.60
2018-08-25T05:33:41.892Z,3.10
2018-08-25T05:34:41.883Z,2.80
2018-08-25T05:35:41.872Z,3.70
2018-08-25T05:36:41.860Z,3.70
2018-08-25T05:37:41.865Z,3.30
2018-08-25T05:38:41.838Z,3.10
2018-08-25T05:39:41.827Z,2.60
2018-08-25T05:40:41.821Z,3.10
2018-08-25T05:41:41.808Z,3.30
2018-08-25T05:42:41.820Z,3.20
2018-08-25T05:43:41.787Z,3.20
2018-08-25T05:44:41.788Z,3.80
2018-08-25T05:45:41.763Z,3.30
2018-08-25T05:46:41.752Z,3.20
2018-08-25T05:47:41.739Z,3.00
2018-08-25T05:48:41.748Z,3.20
2018-08-25T05:49:41.721Z,3.20
2018-08-25T05:50:41.707Z,3.10
2018-08-25T05:51:41.697Z,3.30
2018-08-25T05:52:41.685Z,2.80
2018-08-25T05:53:41.676Z,3.30
2018-08-25T05:54:41.680Z,3.00
2018-08-25T05:55:41.656Z,3.10
2018-08-25T05:56:41.643Z,2.90
2018-08-25T05:57:41.690Z,3.00
2018-08-25T05:58:41.626Z,3.00
2018-08-25T05:59:41.623Z,2.80
2018-08-25T06:00:41.602Z,3.10
2018-08-25T06:01:41.617Z,3.50
2018-08-25T06:02:41.576Z,3.30
2018-08-25T06:03:41.563Z,3.40
2018-08-25T06:04:41.556Z,2.90
2018-08-25T06:05:41.547Z,3.20
2018-08-25T06:06:41.639Z,2.70
2018-08-25T06:07:41.538Z,3.00
2018-08-25T06:08:41.513Z,2.90
2018-08-25T06:09:41.500Z,3.10
2018-08-25T06:10:41.488Z,2.60
2018-08-25T06:11:41.476Z,3.30
2018-08-25T06:12:41.483Z,3.60
2018-08-25T06:13:41.496Z,3.20
2018-08-25T06:14:41.448Z,3.40
2018-08-25T06:15:41.439Z,3.20
2018-08-25T06:16:41.422Z,2.70
2018-08-25T06:17:41.432Z,3.20
2018-08-25T06:18:41.403Z,3.10
2018-08-25T06:19:41.404Z,3.60
2018-08-25T06:20:41.380Z,3.80
2018-08-25T06:21:41.368Z,3.40
2018-08-25T06:22:41.362Z,3.40
2018-08-25T06:23:41.346Z,3.40
2018-08-25T06:24:41.373Z,3.20
2018-08-25T06:25:41.326Z,3.70
2018-08-25T06:26:41.316Z,3.70
2018-08-25T06:27:41.305Z,3.70
2018-08-25T06:28:41.290Z,3.60
2018-08-25T06:29:41.360Z,3.30
2018-08-25T06:30:41.284Z,3.40
2018-08-25T06:31:41.261Z,3.60
2018-08-25T06:32:41.249Z,4.40
2018-08-25T06:33:41.235Z,3.80
2018-08-25T06:34:41.225Z,3.50
2018-08-25T06:35:41.255Z,3.90
2018-08-25T06:36:41.321Z,3.70
2018-08-25T06:37:41.192Z,4.10
2018-08-25T06:38:41.183Z,3.90
2018-08-25T06:39:41.170Z,3.90
2018-08-25T06:40:41.162Z,4.00
2018-08-25T06:41:41.172Z,3.40
2018-08-25T06:42:41.148Z,3.30
2018-08-25T06:43:41.248Z,3.40
2018-08-25T06:44:41.121Z,3.30
2018-08-25T06:45:41.105Z,3.10
2018-08-25T06:46:41.096Z,3.60
2018-08-25T06:47:41.100Z,4.00
2018-08-25T06:48:41.073Z,3.20
2018-08-25T06:49:41.068Z,3.10
2018-08-25T06:50:41.051Z,3.70
2018-08-25T06:51:41.053Z,3.70
2018-08-25T06:52:41.030Z,3.40
2018-08-25T06:53:41.016Z,3.90
2018-08-25T06:54:41.008Z,3.40
2018-08-25T06:55:40.995Z,3.60
2018-08-25T06:56:40.999Z,2.50
2018-08-25T06:57:40.972Z,2.70
2018-08-25T06:58:40.961Z,2.80
2018-08-25T06:59:41.031Z,2.80
2018-08-25T07:00:40.939Z,2.60
2018-08-25T07:01:40.946Z,2.50
2018-08-25T07:02:40.919Z,2.90
2018-08-25T07:03:40.905Z,2.80
2018-08-25T07:04:40.899Z,3.60
2018-08-25T07:05:40.887Z,3.20
2018-08-25T07:06:40.873Z,3.60
2018-08-25T07:07:40.916Z,3.40
2018-08-25T07:08:40.851Z,3.40
2018-08-25T07:09:40.840Z,3.30
2018-08-25T07:10:40.831Z,3.40
2018-08-25T07:11:40.820Z,2.30
2018-08-25T07:12:40.814Z,2.00
2018-08-25T07:13:40.808Z,2.50
2018-08-25T07:14:40.825Z,2.70
2018-08-25T07:15:40.776Z,2.60
2018-08-25T07:16:40.764Z,2.40
2018-08-25T07:17:40.757Z,3.00
2018-08-25T07:18:40.744Z,2.90
2018-08-25T07:19:40.729Z,3.20
2018-08-25T07:20:40.737Z,2.90
2018-08-25T07:21:40.707Z,3.60
2018-08-25T07:22:40.696Z,3.00
2018-08-25T07:23:40.687Z,3.10
2018-08-25T07:24:40.675Z,2.90
2018-08-25T07:25:40.715Z,2.90
2018-08-25T07:26:40.654Z,3.00
2018-08-25T07:27:40.641Z,3.00
2018-08-25T07:28:40.631Z,3.70
2018-08-25T07:29:40.619Z,4.00
2018-08-25T07:30:40.623Z,3.80
2018-08-25T07:31:40.596Z,3.60
2018-08-25T07:32:40.588Z,4.50
2018-08-25T07:33:40.576Z,3.90
2018-08-25T07:34:40.579Z,4.20
2018-08-25T07:35:40.556Z,3.40
2018-08-25T07:36:40.555Z,3.90
2018-08-25T07:37:40.532Z,4.20
2018-08-25T07:38:40.523Z,4.10
2018-08-25T07:39:40.509Z,3.70
2018-08-25T07:40:40.523Z,4.60
2018-08-25T07:41:40.487Z,4.30
2018-08-25T07:42:40.484Z,4.50
2018-08-25T07:43:40.466Z,4.40
2018-08-25T07:44:40.453Z,4.70
2018-08-25T07:45:40.443Z,4.80
2018-08-25T07:46:40.450Z,4.90
2018-08-25T07:47:40.419Z,4.70
2018-08-25T07:48:40.437Z,4.30
2018-08-25T07:49:40.530Z,4.50
2018-08-25T07:50:40.390Z,3.40
2018-08-25T07:51:40.392Z,4.50
2018-08-25T07:52:40.389Z,4.30
2018-08-25T07:53:40.375Z,4.60
2018-08-25T07:54:40.345Z,3.90
2018-08-25T07:55:40.334Z,3.80
2018-08-25T07:56:40.324Z,4.50
2018-08-25T07:57:40.352Z,4.80
2018-08-25T07:58:40.459Z,4.90
2018-08-25T07:59:40.288Z,4.60
2018-08-25T08:00:40.275Z,4.90
2018-08-25T08:01:40.263Z,4.70
2018-08-25T08:02:40.268Z,4.60
2018-08-25T08:03:40.258Z,4.50
2018-08-25T08:04:40.232Z,3.70
2018-08-25T08:05:40.291Z,2.80
2018-08-25T08:06:40.211Z,3.50
2018-08-25T08:07:40.215Z,3.80
2018-08-25T08:08:40.188Z,3.60
2018-08-25T08:09:40.177Z,3.30
2018-08-25T08:10:40.207Z,2.80
2018-08-25T08:11:40.192Z,2.30
2018-08-25T08:12:40.170Z,2.40
2018-08-25T08:13:40.132Z,2.10
2018-08-25T08:14:40.195Z,1.80
2018-08-25T08:15:40.120Z,1.90
2018-08-25T08:16:40.112Z,1.90
2018-08-25T08:17:40.133Z,1.90
2018-08-25T08:18:40.115Z,1.80
2018-08-25T08:19:40.067Z,1.60
2018-08-25T08:20:40.055Z,1.70
2018-08-25T08:21:40.095Z,1.60
2018-08-25T08:22:40.033Z,1.60
2018-08-25T08:23:40.020Z,1.50
2018-08-25T08:24:40.119Z,1.50
2018-08-25T08:25:40.000Z,1.70
2018-08-25T08:26:39.991Z,1.50
2018-08-25T08:27:39.977Z,1.40
2018-08-25T08:28:39.988Z,1.50
2018-08-25T08:29:39.958Z,1.60
2018-08-25T08:30:40.095Z,1.60
2018-08-25T08:31:39.936Z,1.50
2018-08-25T08:32:39.922Z,1.40
2018-08-25T08:33:39.908Z,1.80
2018-08-25T08:34:39.916Z,1.60
2018-08-25T08:35:39.892Z,1.70
2018-08-25T08:36:39.952Z,1.40
2018-08-25T08:37:39.870Z,1.50
2018-08-25T08:38:39.873Z,1.30
2018-08-25T08:39:40.092Z,1.30
2018-08-25T08:40:39.883Z,1.20
2018-08-25T08:41:39.818Z,1.30
2018-08-25T08:42:39.932Z,1.30
2018-08-25T08:43:39.929Z,1.40
2018-08-25T08:44:39.803Z,1.20
2018-08-25T08:45:39.817Z,1.40
2018-08-25T08:46:39.765Z,1.10
2018-08-25T08:47:39.799Z,1.00
2018-08-25T08:48:39.747Z,1.20
2018-08-25T08:49:46.597Z,1.30
2018-08-25T08:50:39.727Z,1.50
2018-08-25T08:51:39.724Z,1.70
2018-08-25T08:52:39.701Z,1.80
2018-08-25T08:53:39.687Z,1.60
2018-08-25T08:54:39.780Z,1.80
2018-08-25T08:55:39.669Z,1.50
2018-08-25T08:56:39.685Z,2.10
2018-08-25T08:57:39.764Z,1.70
2018-08-25T08:58:39.631Z,1.90
2018-08-25T08:59:39.622Z,2.10
2018-08-25T09:00:39.608Z,2.30
2018-08-25T09:01:39.605Z,2.20
2018-08-25T09:02:39.609Z,2.20
2018-08-25T09:03:39.686Z,2.30
2018-08-25T09:04:39.568Z,2.40
2018-08-25T09:05:39.579Z,2.40
2018-08-25T09:06:39.543Z,2.90
2018-08-25T09:07:39.532Z,2.60
2018-08-25T09:08:39.651Z,2.10
2018-08-25T09:09:39.619Z,2.90
2018-08-25T09:10:39.495Z,2.70
2018-08-25T09:11:39.533Z,2.50
2018-08-25T09:12:39.474Z,2.70
2018-08-25T09:13:39.542Z,2.50
2018-08-25T09:14:39.465Z,2.50
2018-08-25T09:15:39.445Z,2.30
2018-08-25T09:16:39.428Z,2.50
2018-08-25T09:17:39.468Z,2.70
2018-08-25T09:18:39.428Z,2.50
2018-08-25T09:19:39.395Z,2.20
2018-08-25T09:20:39.384Z,2.40
2018-08-25T09:21:39.372Z,2.30
2018-08-25T09:22:39.405Z,2.40
2018-08-25T09:23:39.350Z,3.70
2018-08-25T09:24:39.353Z,3.90
2018-08-25T09:25:39.329Z,3.30
2018-08-25T09:26:39.318Z,3.20
2018-08-25T09:27:39.311Z,2.80
2018-08-25T09:28:39.313Z,3.10
2018-08-25T09:29:39.309Z,3.80
2018-08-25T09:30:39.272Z,4.00
2018-08-25T09:31:39.267Z,3.80
2018-08-25T09:32:39.252Z,4.60
2018-08-25T09:33:39.245Z,4.50
2018-08-25T09:34:39.237Z,4.30
2018-08-25T09:35:39.245Z,4.50
2018-08-25T09:36:39.258Z,4.60
2018-08-25T09:37:39.203Z,4.70
2018-08-25T09:38:39.185Z,4.30
2018-08-25T09:39:39.176Z,4.50
2018-08-25T09:40:39.167Z,4.50
2018-08-25T09:41:39.181Z,4.60
2018-08-25T09:42:39.143Z,4.30
2018-08-25T09:43:39.134Z,5.00
2018-08-25T09:44:39.121Z,4.50
2018-08-25T09:45:39.112Z,4.40
2018-08-25T09:46:39.097Z,4.30
2018-08-25T09:47:39.106Z,4.10
2018-08-25T09:48:39.075Z,4.60
2018-08-25T09:49:39.079Z,4.60
2018-08-25T09:50:39.057Z,4.10
2018-08-25T09:51:39.046Z,3.80
2018-08-25T09:52:39.033Z,3.90
2018-08-25T09:53:39.135Z,3.60
2018-08-25T09:54:39.035Z,3.20
2018-08-25T09:55:39.003Z,3.80
2018-08-25T09:56:38.989Z,3.80
2018-08-25T09:57:38.980Z,3.40
2018-08-25T09:58:38.967Z,3.30
2018-08-25T09:59:38.959Z,3.80
2018-08-25T10:00:38.964Z,3.20
2018-08-25T10:01:38.936Z,3.70
2018-08-25T10:02:38.923Z,3.20
2018-08-25T10:03:38.911Z,4.10
2018-08-25T10:04:38.904Z,4.00
2018-08-25T10:05:38.891Z,4.30
2018-08-25T10:06:38.920Z,4.50
2018-08-25T10:07:38.868Z,4.20
2018-08-25T10:08:38.856Z,3.60
2018-08-25T10:09:38.848Z,3.50
2018-08-25T10:10:38.836Z,3.60
2018-08-25T10:11:38.825Z,3.50
2018-08-25T10:12:38.833Z,3.80
2018-08-25T10:13:38.809Z,3.80
2018-08-25T10:14:38.794Z,3.90
2018-08-25T10:15:38.779Z,3.90
2018-08-25T10:16:38.770Z,4.00
2018-08-25T10:17:38.776Z,3.20
2018-08-25T10:18:38.762Z,3.20
2018-08-25T10:19:38.739Z,3.00
2018-08-25T10:20:38.727Z,3.30
2018-08-25T10:21:38.716Z,2.80
2018-08-25T10:22:38.702Z,3.20
2018-08-25T10:23:38.756Z,2.70
2018-08-25T10:24:38.699Z,2.30
2018-08-25T10:25:38.670Z,2.30
2018-08-25T10:26:38.660Z,2.50
2018-08-25T10:27:38.647Z,2.40
2018-08-25T10:28:38.650Z,2.70
2018-08-25T10:29:38.624Z,2.10
2018-08-25T10:30:38.614Z,2.30
2018-08-25T10:31:38.603Z,2.50
2018-08-25T10:32:38.594Z,2.30
2018-08-25T10:33:38.594Z,2.70
2018-08-25T10:34:38.585Z,2.80
2018-08-25T10:35:38.577Z,1.80
2018-08-25T10:36:38.551Z,2.40
2018-08-25T10:37:38.537Z,2.00
2018-08-25T10:38:38.547Z,2.10
2018-08-25T10:39:38.515Z,2.20
2018-08-25T10:40:38.503Z,2.10
2018-08-25T10:41:38.572Z,1.80
2018-08-25T10:42:38.494Z,1.70
2018-08-25T10:43:38.474Z,1.90
2018-08-25T10:44:38.481Z,1.50
2018-08-25T10:45:38.447Z,1.60
2018-08-25T10:46:38.436Z,1.60
2018-08-25T10:47:38.427Z,1.40
2018-08-25T10:48:38.419Z,1.50
2018-08-25T10:49:38.410Z,1.70
2018-08-25T10:50:38.408Z,1.80
2018-08-25T10:51:38.383Z,1.40
2018-08-25T10:52:38.387Z,1.70
2018-08-25T10:53:38.360Z,1.80
2018-08-25T10:54:38.352Z,1.80
2018-08-25T10:55:38.353Z,1.60
2018-08-25T10:56:38.330Z,1.60
2018-08-25T10:57:38.332Z,1.50
2018-08-25T10:58:38.308Z,1.40
2018-08-25T10:59:38.294Z,1.60
2018-08-25T11:00:38.482Z,1.40
2018-08-25T11:01:38.274Z,1.50
2018-08-25T11:02:38.265Z,1.30
2018-08-25T11:03:38.256Z,1.60
2018-08-25T11:04:38.241Z,1.60
2018-08-25T11:05:38.230Z,1.40
2018-08-25T11:06:38.243Z,1.70
2018-08-25T11:07:38.211Z,1.30
2018-08-25T11:08:38.207Z,1.70
2018-08-25T11:09:38.190Z,1.30
2018-08-25T11:10:38.175Z,1.60
2018-08-25T11:11:38.170Z,1.60
2018-08-25T11:12:38.172Z,1.40
2018-08-25T11:13:38.160Z,1.20
2018-08-25T11:14:38.136Z,1.30
2018-08-25T11:15:38.128Z,1.40
2018-08-25T11:16:38.115Z,1.00
2018-08-25T11:17:38.106Z,0.90
2018-08-25T11:18:38.096Z,1.00
2018-08-25T11:19:38.105Z,1.00
2018-08-25T11:20:38.068Z,1.00
2018-08-25T11:21:38.069Z,1.10
2018-08-25T11:22:38.051Z,1.00
2018-08-25T11:23:38.068Z,0.90
2018-08-25T11:24:38.029Z,0.70
2018-08-25T11:25:38.030Z,0.90
2018-08-25T11:26:38.008Z,1.00
2018-08-25T11:27:38.086Z,1.10
2018-08-25T11:28:37.987Z,0.90
2018-08-25T11:29:37.975Z,1.00
2018-08-25T11:30:37.978Z,0.90
2018-08-25T11:31:37.957Z,0.80
2018-08-25T11:32:37.951Z,0.90
2018-08-25T11:33:37.962Z,1.00
2018-08-25T11:34:37.918Z,1.00
2018-08-25T11:35:37.926Z,0.90
2018-08-25T11:36:37.896Z,0.90
2018-08-25T11:37:37.954Z,1.00
2018-08-25T11:38:37.874Z,0.90
2018-08-25T11:39:37.869Z,0.80
2018-08-25T11:40:37.856Z,1.00
2018-08-25T11:41:37.860Z,1.10
2018-08-25T11:42:37.840Z,1.10
2018-08-25T11:43:37.819Z,0.90
2018-08-25T11:44:37.812Z,1.10
2018-08-25T11:45:37.799Z,1.10
2018-08-25T11:46:37.825Z,1.30
2018-08-25T11:47:37.868Z,1.30
2018-08-25T11:48:37.842Z,1.30
2018-08-25T11:49:37.757Z,1.10
2018-08-25T11:50:37.745Z,1.10
2018-08-25T11:51:37.759Z,1.10
2018-08-25T11:52:37.819Z,1.30
2018-08-25T11:53:37.715Z,1.30
2018-08-25T11:54:37.707Z,1.30
2018-08-25T11:55:37.806Z,1.20
2018-08-25T11:56:37.681Z,1.10
2018-08-25T11:57:37.686Z,1.30
2018-08-25T11:58:37.763Z,1.20
2018-08-25T11:59:37.648Z,1.20
2018-08-25T12:00:37.639Z,1.20
2018-08-25T12:01:37.678Z,1.20
2018-08-25T12:02:37.713Z,1.00
2018-08-25T12:03:37.673Z,1.00
2018-08-25T12:04:37.592Z,1.00
2018-08-25T12:05:37.582Z,0.90
2018-08-25T12:06:37.569Z,0.80
2018-08-25T12:07:37.584Z,0.80
2018-08-25T12:08:37.548Z,0.70
2018-08-25T12:09:37.568Z,0.80
2018-08-25T12:10:37.532Z,1.10
2018-08-25T12:11:37.516Z,0.80
2018-08-25T12:12:37.524Z,0.60
2018-08-25T12:13:37.492Z,0.50
2018-08-25T12:14:37.483Z,0.50
2018-08-25T12:15:37.472Z,0.50
2018-08-25T12:16:37.468Z,0.50
2018-08-25T12:17:37.476Z,0.50
2018-08-25T12:18:37.440Z,0.50
2018-08-25T12:19:37.463Z,0.40
2018-08-25T12:20:37.417Z,0.40
2018-08-25T12:21:37.407Z,0.30
2018-08-25T12:22:37.486Z,0.40
2018-08-25T12:23:37.448Z,0.30
2018-08-25T12:24:37.376Z,0.40
2018-08-25T12:25:37.363Z,0.40
2018-08-25T12:26:37.354Z,0.40
2018-08-25T12:27:37.343Z,0.50
2018-08-25T12:28:37.334Z,0.30
2018-08-25T12:29:37.379Z,0.40
2018-08-25T12:30:37.363Z,0.50
2018-08-25T12:31:37.302Z,0.40
2018-08-25T12:32:37.302Z,0.50
2018-08-25T12:33:37.394Z,0.40
2018-08-25T12:34:37.270Z,0.40
2018-08-25T12:35:37.324Z,0.30
2018-08-25T12:36:37.359Z,0.40
2018-08-25T12:37:37.235Z,0.40
2018-08-25T12:38:37.227Z,0.50
2018-08-25T12:39:37.279Z,0.40
2018-08-25T12:40:37.205Z,0.40
2018-08-25T12:41:37.191Z,0.30
2018-08-25T12:42:37.179Z,0.30
2018-08-25T12:43:37.331Z,0.50
2018-08-25T12:44:37.159Z,0.60
2018-08-25T12:45:37.161Z,0.50
2018-08-25T12:46:37.143Z,0.30
2018-08-25T12:47:37.125Z,0.50
2018-08-25T12:48:37.155Z,0.40
2018-08-25T12:49:37.123Z,0.40
2018-08-25T12:50:37.133Z,0.50
2018-08-25T12:51:37.121Z,0.60
2018-08-25T12:52:37.073Z,0.50
2018-08-25T12:53:37.063Z,0.50
2018-08-25T12:54:37.049Z,0.50
2018-08-25T12:55:37.042Z,0.40
2018-08-25T12:56:37.061Z,0.50
2018-08-25T12:57:37.022Z,0.50
2018-08-25T12:58:37.009Z,0.50
2018-08-25T12:59:37.037Z,0.40
2018-08-25T13:00:36.984Z,0.40
2018-08-25T13:01:37.028Z,0.40
2018-08-25T13:02:37.039Z,0.40
2018-08-25T13:03:36.953Z,0.30
2018-08-25T13:04:36.941Z,0.30
2018-08-25T13:05:36.943Z,0.40
2018-08-25T13:06:36.956Z,0.30
2018-08-25T13:07:37.054Z,0.50
2018-08-25T13:08:36.903Z,0.40
2018-08-25T13:09:36.887Z,0.50
2018-08-25T13:10:36.879Z,0.50
2018-08-25T13:11:36.866Z,0.30
2018-08-25T13:12:36.868Z,0.30
2018-08-25T13:13:36.854Z,0.30
2018-08-25T13:14:36.859Z,0.50
2018-08-25T13:15:36.824Z,0.30
2018-08-25T13:16:36.812Z,0.50
2018-08-25T13:17:36.800Z,0.40
2018-08-25T13:18:36.829Z,0.40